sensor_id;sensor_type;location;lat;lon;timestamp;pressure;altitude;pressure_sealevel;temperature;humidity
60974;BME280;46846;51.528;5.076;2023-04-26T00:01:10;101414.88;;;6.52;66.54
60974;BME280;46846;51.528;5.076;2023-04-26T00:03:36;101414.88;;;6.51;66.22
60974;BME280;46846;51.528;5.076;2023-04-26T00:06:01;101408.72;;;6.49;66.56
60974;BME280;46846;51.528;5.076;2023-04-26T00:08:32;101421.94;;;6.47;66.28
60974;BME280;46846;51.528;5.076;2023-04-26T00:10:58;101418.44;;;6.47;66.27
60974;BME280;46846;51.528;5.076;2023-04-26T00:13:23;101420.19;;;6.46;66.59
60974;BME280;46846;51.528;5.076;2023-04-26T00:15:48;101426.41;;;6.42;66.02
60974;BME280;46846;51.528;5.076;2023-04-26T00:18:13;101424.63;;;6.44;66.25
60974;BME280;46846;51.528;5.076;2023-04-26T00:20:39;101425.53;;;6.40;66.22
60974;BME280;46846;51.528;5.076;2023-04-26T00:23:04;101422.91;;;6.38;66.04
60974;BME280;46846;51.528;5.076;2023-04-26T00:25:30;101421.19;;;6.34;66.19
60974;BME280;46846;51.528;5.076;2023-04-26T00:27:56;101423.84;;;6.33;66.04
60974;BME280;46846;51.528;5.076;2023-04-26T00:30:21;101417.69;;;6.32;66.18
60974;BME280;46846;51.528;5.076;2023-04-26T00:32:47;101424.75;;;6.30;66.51
60974;BME280;46846;51.528;5.076;2023-04-26T00:35:12;101418.59;;;6.25;66.23
60974;BME280;46846;51.528;5.076;2023-04-26T00:37:37;101424.78;;;6.25;66.63
60974;BME280;46846;51.528;5.076;2023-04-26T00:40:03;101423.88;;;6.23;66.61
60974;BME280;46846;51.528;5.076;2023-04-26T00:42:30;101424.78;;;6.21;66.77
60974;BME280;46846;51.528;5.076;2023-04-26T00:44:55;101425.72;;;6.18;66.56
60974;BME280;46846;51.528;5.076;2023-04-26T00:47:21;101417.78;;;6.17;66.63
60974;BME280;46846;51.528;5.076;2023-04-26T00:49:46;101423.97;;;6.14;66.55
60974;BME280;46846;51.528;5.076;2023-04-26T00:52:12;101423.09;;;6.12;66.81
60974;BME280;46846;51.528;5.076;2023-04-26T00:54:37;101417.81;;;6.10;67.11
60974;BME280;46846;51.528;5.076;2023-04-26T00:57:03;101419.59;;;6.08;66.51
60974;BME280;46846;51.528;5.076;2023-04-26T00:59:31;101412.56;;;6.07;66.76
60974;BME280;46846;51.528;5.076;2023-04-26T01:01:57;101416.97;;;6.08;66.59
60974;BME280;46846;51.528;5.076;2023-04-26T01:04:23;101423.13;;;6.07;66.36
60974;BME280;46846;51.528;5.076;2023-04-26T01:06:51;101419.59;;;6.05;66.17
60974;BME280;46846;51.528;5.076;2023-04-26T01:09:16;101415.22;;;6.01;66.57
60974;BME280;46846;51.528;5.076;2023-04-26T01:11:42;101424.03;;;5.98;66.55
60974;BME280;46846;51.528;5.076;2023-04-26T01:14:07;101425.81;;;5.96;66.46
60974;BME280;46846;51.528;5.076;2023-04-26T01:16:33;101417.88;;;5.96;66.09
60974;BME280;46846;51.528;5.076;2023-04-26T01:19:06;101421.41;;;5.94;66.28
60974;BME280;46846;51.528;5.076;2023-04-26T01:21:31;101424.06;;;5.94;66.41
60974;BME280;46846;51.528;5.076;2023-04-26T01:23:57;101426.69;;;5.94;66.63
60974;BME280;46846;51.528;5.076;2023-04-26T01:26:22;101425.84;;;5.92;66.10
60974;BME280;46846;51.528;5.076;2023-04-26T01:28:47;101419.66;;;5.89;66.20
60974;BME280;46846;51.528;5.076;2023-04-26T01:31:13;101426.72;;;5.87;66.06
60974;BME280;46846;51.528;5.076;2023-04-26T01:33:38;101427.63;;;5.85;66.27
60974;BME280;46846;51.528;5.076;2023-04-26T01:36:07;101427.66;;;5.82;66.44
60974;BME280;46846;51.528;5.076;2023-04-26T01:38:33;101425.91;;;5.81;66.64
60974;BME280;46846;51.528;5.076;2023-04-26T01:40:58;101426.75;;;5.81;66.87
60974;BME280;46846;51.528;5.076;2023-04-26T01:43:24;101428.53;;;5.79;66.75
60974;BME280;46846;51.528;5.076;2023-04-26T01:45:49;101425.88;;;5.78;66.14
60974;BME280;46846;51.528;5.076;2023-04-26T01:48:14;101420.59;;;5.78;66.23
60974;BME280;46846;51.528;5.076;2023-04-26T01:50:39;101415.34;;;5.74;66.46
60974;BME280;46846;51.528;5.076;2023-04-26T01:53:05;101414.47;;;5.72;66.68
60974;BME280;46846;51.528;5.076;2023-04-26T01:55:30;101421.53;;;5.70;66.09
60974;BME280;46846;51.528;5.076;2023-04-26T01:57:55;101419.78;;;5.69;67.02
60974;BME280;46846;51.528;5.076;2023-04-26T02:00:21;101421.56;;;5.66;66.85
60974;BME280;46846;51.528;5.076;2023-04-26T02:02:46;101418.94;;;5.63;66.70
60974;BME280;46846;51.528;5.076;2023-04-26T02:05:11;101414.53;;;5.61;66.48
60974;BME280;46846;51.528;5.076;2023-04-26T02:07:37;101423.31;;;5.64;65.97
60974;BME280;46846;51.528;5.076;2023-04-26T02:10:03;101421.56;;;5.59;66.18
60974;BME280;46846;51.528;5.076;2023-04-26T02:12:28;101426.88;;;5.56;66.50
60974;BME280;46846;51.528;5.076;2023-04-26T02:14:53;101418.97;;;5.56;66.77
60974;BME280;46846;51.528;5.076;2023-04-26T02:17:19;101420.72;;;5.56;66.44
60974;BME280;46846;51.528;5.076;2023-04-26T02:19:45;101428.66;;;5.54;66.60
60974;BME280;46846;51.528;5.076;2023-04-26T02:22:10;101427.75;;;5.52;66.76
60974;BME280;46846;51.528;5.076;2023-04-26T02:24:37;101425.13;;;5.46;66.70
60974;BME280;46846;51.528;5.076;2023-04-26T02:27:02;101420.75;;;5.48;66.74
60974;BME280;46846;51.528;5.076;2023-04-26T02:29:29;101425.13;;;5.46;66.83
60974;BME280;46846;51.528;5.076;2023-04-26T02:31:54;101418.09;;;5.45;66.10
60974;BME280;46846;51.528;5.076;2023-04-26T02:34:20;101414.59;;;5.41;66.49
60974;BME280;46846;51.528;5.076;2023-04-26T02:36:45;101415.50;;;5.40;66.53
60974;BME280;46846;51.528;5.076;2023-04-26T02:39:10;101413.75;;;5.39;66.05
60974;BME280;46846;51.528;5.076;2023-04-26T02:41:36;101416.41;;;5.36;66.38
60974;BME280;46846;51.528;5.076;2023-04-26T02:44:01;101411.13;;;5.34;66.14
60974;BME280;46846;51.528;5.076;2023-04-26T02:46:26;101412.00;;;5.32;66.43
60974;BME280;46846;51.528;5.076;2023-04-26T02:48:51;101405.88;;;5.30;66.63
60974;BME280;46846;51.528;5.076;2023-04-26T02:51:17;101403.22;;;5.30;66.57
60974;BME280;46846;51.528;5.076;2023-04-26T02:53:42;101406.75;;;5.27;66.89
60974;BME280;46846;51.528;5.076;2023-04-26T02:56:07;101404.09;;;5.27;66.46
60974;BME280;46846;51.528;5.076;2023-04-26T02:58:33;101406.75;;;5.24;66.33
60974;BME280;46846;51.528;5.076;2023-04-26T03:00:58;101397.94;;;5.22;66.43
60974;BME280;46846;51.528;5.076;2023-04-26T03:03:23;101398.84;;;5.21;66.30
60974;BME280;46846;51.528;5.076;2023-04-26T03:05:49;101405.88;;;5.17;66.85
60974;BME280;46846;51.528;5.076;2023-04-26T03:08:14;101401.50;;;5.16;66.87
60974;BME280;46846;51.528;5.076;2023-04-26T03:10:40;101400.59;;;5.16;66.67
60974;BME280;46846;51.528;5.076;2023-04-26T03:13:05;101404.13;;;5.15;66.54
60974;BME280;46846;51.528;5.076;2023-04-26T03:15:30;101398.88;;;5.12;66.27
60974;BME280;46846;51.528;5.076;2023-04-26T03:17:55;101395.38;;;5.10;66.69
60974;BME280;46846;51.528;5.076;2023-04-26T03:20:22;101392.72;;;5.10;66.44
60974;BME280;46846;51.528;5.076;2023-04-26T03:22:47;101398.88;;;5.07;66.40
60974;BME280;46846;51.528;5.076;2023-04-26T03:25:13;101403.28;;;5.03;66.83
60974;BME280;46846;51.528;5.076;2023-04-26T03:27:39;101408.56;;;5.02;66.68
60974;BME280;46846;51.528;5.076;2023-04-26T03:30:05;101405.06;;;5.00;66.26
60974;BME280;46846;51.528;5.076;2023-04-26T03:32:30;101402.41;;;4.97;66.74
60974;BME280;46846;51.528;5.076;2023-04-26T03:34:56;101393.63;;;4.96;66.60
60974;BME280;46846;51.528;5.076;2023-04-26T03:37:21;101390.13;;;4.94;66.28
60974;BME280;46846;51.528;5.076;2023-04-26T03:39:46;101391.00;;;4.93;66.26
60974;BME280;46846;51.528;5.076;2023-04-26T03:42:11;101386.59;;;4.92;66.69
60974;BME280;46846;51.528;5.076;2023-04-26T03:44:37;101395.41;;;4.91;66.11
60974;BME280;46846;51.528;5.076;2023-04-26T03:47:02;101399.81;;;4.90;66.63
60974;BME280;46846;51.528;5.076;2023-04-26T03:49:29;101400.69;;;4.86;67.01
60974;BME280;46846;51.528;5.076;2023-04-26T03:51:54;101400.69;;;4.86;66.53
60974;BME280;46846;51.528;5.076;2023-04-26T03:54:20;101404.19;;;4.84;66.87
60974;BME280;46846;51.528;5.076;2023-04-26T03:56:45;101398.91;;;4.82;66.65
60974;BME280;46846;51.528;5.076;2023-04-26T03:59:11;101397.19;;;4.79;66.93
60974;BME280;46846;51.528;5.076;2023-04-26T04:01:36;101392.78;;;4.78;66.69
60974;BME280;46846;51.528;5.076;2023-04-26T04:04:02;101399.81;;;4.78;66.88
60974;BME280;46846;51.528;5.076;2023-04-26T04:06:27;101396.28;;;4.77;66.21
60974;BME280;46846;51.528;5.076;2023-04-26T04:08:52;101395.44;;;4.75;66.56
60974;BME280;46846;51.528;5.076;2023-04-26T04:11:18;101392.78;;;4.75;66.19
60974;BME280;46846;51.528;5.076;2023-04-26T04:13:43;101391.91;;;4.75;66.76
60974;BME280;46846;51.528;5.076;2023-04-26T04:16:08;101396.31;;;4.73;66.14
60974;BME280;46846;51.528;5.076;2023-04-26T04:18:34;101389.28;;;4.69;66.52
60974;BME280;46846;51.528;5.076;2023-04-26T04:20:59;101393.69;;;4.68;66.88
60974;BME280;46846;51.528;5.076;2023-04-26T04:23:25;101398.06;;;4.64;66.91
60974;BME280;46846;51.528;5.076;2023-04-26T04:25:52;101397.19;;;4.65;66.49
60974;BME280;46846;51.528;5.076;2023-04-26T04:28:17;101397.19;;;4.64;66.75
60974;BME280;46846;51.528;5.076;2023-04-26T04:30:42;101407.72;;;4.64;66.62
60974;BME280;46846;51.528;5.076;2023-04-26T04:33:08;101414.75;;;4.62;66.18
60974;BME280;46846;51.528;5.076;2023-04-26T04:35:33;101421.78;;;4.58;66.63
60974;BME280;46846;51.528;5.076;2023-04-26T04:37:59;101425.31;;;4.57;67.03
60974;BME280;46846;51.528;5.076;2023-04-26T04:40:24;101418.28;;;4.56;66.63
60974;BME280;46846;51.528;5.076;2023-04-26T04:42:50;101413.00;;;4.56;66.41
60974;BME280;46846;51.528;5.076;2023-04-26T04:45:15;101416.53;;;4.57;66.29
60974;BME280;46846;51.528;5.076;2023-04-26T04:47:41;101425.31;;;4.53;66.98
60974;BME280;46846;51.528;5.076;2023-04-26T04:50:07;101421.78;;;4.54;66.52
60974;BME280;46846;51.528;5.076;2023-04-26T04:52:32;101417.41;;;4.53;66.30
60974;BME280;46846;51.528;5.076;2023-04-26T04:54:58;101413.88;;;4.52;66.35
60974;BME280;46846;51.528;5.076;2023-04-26T04:57:23;101420.91;;;4.50;66.69
60974;BME280;46846;51.528;5.076;2023-04-26T04:59:48;101419.16;;;4.49;66.55
60974;BME280;46846;51.528;5.076;2023-04-26T05:02:14;101415.63;;;4.48;66.70
60974;BME280;46846;51.528;5.076;2023-04-26T05:04:39;101410.38;;;4.50;66.74
60974;BME280;46846;51.528;5.076;2023-04-26T05:07:04;101407.75;;;4.51;67.29
60974;BME280;46846;51.528;5.076;2023-04-26T05:09:30;101409.50;;;4.49;66.96
60974;BME280;46846;51.528;5.076;2023-04-26T05:11:56;101415.63;;;4.48;66.50
60974;BME280;46846;51.528;5.076;2023-04-26T05:14:21;101421.78;;;4.47;66.88
60974;BME280;46846;51.528;5.076;2023-04-26T05:16:46;101423.56;;;4.47;67.05
60974;BME280;46846;51.528;5.076;2023-04-26T05:19:12;101420.91;;;4.45;67.12
60974;BME280;46846;51.528;5.076;2023-04-26T05:21:37;101425.31;;;4.46;66.56
60974;BME280;46846;51.528;5.076;2023-04-26T05:24:02;101425.31;;;4.46;67.21
60974;BME280;46846;51.528;5.076;2023-04-26T05:26:28;101414.75;;;4.46;66.89
60974;BME280;46846;51.528;5.076;2023-04-26T05:28:53;101420.94;;;4.47;66.97
60974;BME280;46846;51.528;5.076;2023-04-26T05:31:18;101426.19;;;4.45;66.77
60974;BME280;46846;51.528;5.076;2023-04-26T05:33:44;101425.31;;;4.43;66.89
60974;BME280;46846;51.528;5.076;2023-04-26T05:36:09;101417.41;;;4.43;66.78
60974;BME280;46846;51.528;5.076;2023-04-26T05:38:35;101420.06;;;4.43;67.07
60974;BME280;46846;51.528;5.076;2023-04-26T05:41:02;101421.81;;;4.44;67.12
60974;BME280;46846;51.528;5.076;2023-04-26T05:43:27;101428.84;;;4.42;66.88
60974;BME280;46846;51.528;5.076;2023-04-26T05:45:53;101424.44;;;4.44;67.40
60974;BME280;46846;51.528;5.076;2023-04-26T05:48:22;101426.19;;;4.47;67.37
60974;BME280;46846;51.528;5.076;2023-04-26T05:50:48;101426.19;;;4.48;67.04
60974;BME280;46846;51.528;5.076;2023-04-26T05:53:13;101424.44;;;4.49;66.76
60974;BME280;46846;51.528;5.076;2023-04-26T05:55:42;101426.19;;;4.48;66.61
60974;BME280;46846;51.528;5.076;2023-04-26T05:58:07;101433.22;;;4.48;66.93
60974;BME280;46846;51.528;5.076;2023-04-26T06:00:32;101438.47;;;4.51;66.61
60974;BME280;46846;51.528;5.076;2023-04-26T06:02:58;101437.59;;;4.52;66.91
60974;BME280;46846;51.528;5.076;2023-04-26T06:05:23;101436.75;;;4.53;66.59
60974;BME280;46846;51.528;5.076;2023-04-26T06:07:48;101436.72;;;4.55;67.04
60974;BME280;46846;51.528;5.076;2023-04-26T06:10:14;101442.00;;;4.55;66.65
60974;BME280;46846;51.528;5.076;2023-04-26T06:12:39;101442.00;;;4.56;66.98
60974;BME280;46846;51.528;5.076;2023-04-26T06:15:05;101442.00;;;4.55;66.97
60974;BME280;46846;51.528;5.076;2023-04-26T06:17:30;101449.91;;;4.56;67.11
60974;BME280;46846;51.528;5.076;2023-04-26T06:19:56;101456.06;;;4.55;66.94
60974;BME280;46846;51.528;5.076;2023-04-26T06:22:21;101455.19;;;4.56;66.85
60974;BME280;46846;51.528;5.076;2023-04-26T06:24:46;101450.81;;;4.57;67.47
60974;BME280;46846;51.528;5.076;2023-04-26T06:27:11;101465.72;;;4.55;67.10
60974;BME280;46846;51.528;5.076;2023-04-26T06:29:37;101458.69;;;4.55;67.03
60974;BME280;46846;51.528;5.076;2023-04-26T06:32:02;101457.81;;;4.56;67.58
60974;BME280;46846;51.528;5.076;2023-04-26T06:34:27;101461.34;;;4.57;67.39
60974;BME280;46846;51.528;5.076;2023-04-26T06:36:52;101466.63;;;4.57;67.39
60974;BME280;46846;51.528;5.076;2023-04-26T06:39:18;101463.09;;;4.58;67.18
60974;BME280;46846;51.528;5.076;2023-04-26T06:41:43;101456.94;;;4.56;67.00
60974;BME280;46846;51.528;5.076;2023-04-26T06:44:08;101461.34;;;4.57;67.73
60974;BME280;46846;51.528;5.076;2023-04-26T06:46:33;101462.22;;;4.57;67.41
60974;BME280;46846;51.528;5.076;2023-04-26T06:48:59;101462.22;;;4.59;67.37
60974;BME280;46846;51.528;5.076;2023-04-26T06:51:25;101465.72;;;4.59;67.66
60974;BME280;46846;51.528;5.076;2023-04-26T06:53:51;101463.97;;;4.60;67.28
60974;BME280;46846;51.528;5.076;2023-04-26T06:56:16;101459.56;;;4.57;68.13
60974;BME280;46846;51.528;5.076;2023-04-26T06:58:56;101463.09;;;4.58;67.79
60974;BME280;46846;51.528;5.076;2023-04-26T07:01:22;101460.47;;;4.61;67.63
60974;BME280;46846;51.528;5.076;2023-04-26T07:03:47;101463.09;;;4.62;67.49
60974;BME280;46846;51.528;5.076;2023-04-26T07:06:12;101470.13;;;4.65;67.77
60974;BME280;46846;51.528;5.076;2023-04-26T07:08:38;101469.25;;;4.66;67.39
60974;BME280;46846;51.528;5.076;2023-04-26T07:11:08;101467.50;;;4.68;67.89
60974;BME280;46846;51.528;5.076;2023-04-26T07:13:33;101468.34;;;4.70;67.77
60974;BME280;46846;51.528;5.076;2023-04-26T07:15:58;101467.47;;;4.71;67.84
60974;BME280;46846;51.528;5.076;2023-04-26T07:18:24;101471.88;;;4.71;67.36
60974;BME280;46846;51.528;5.076;2023-04-26T07:20:49;101464.84;;;4.71;67.43
60974;BME280;46846;51.528;5.076;2023-04-26T07:23:14;101465.75;;;4.73;67.39
60974;BME280;46846;51.528;5.076;2023-04-26T07:25:40;101462.22;;;4.76;67.38
60974;BME280;46846;51.528;5.076;2023-04-26T07:28:05;101457.81;;;4.78;67.73
60974;BME280;46846;51.528;5.076;2023-04-26T07:30:30;101455.19;;;4.79;67.74
60974;BME280;46846;51.528;5.076;2023-04-26T07:32:56;101453.44;;;4.83;67.98
60974;BME280;46846;51.528;5.076;2023-04-26T07:35:21;101455.16;;;4.86;67.84
60974;BME280;46846;51.528;5.076;2023-04-26T07:37:47;101458.69;;;4.86;67.90
60974;BME280;46846;51.528;5.076;2023-04-26T07:40:12;101452.53;;;4.86;67.61
60974;BME280;46846;51.528;5.076;2023-04-26T07:42:37;101457.81;;;4.89;67.77
60974;BME280;46846;51.528;5.076;2023-04-26T07:45:03;101459.56;;;4.96;67.76
60974;BME280;46846;51.528;5.076;2023-04-26T07:47:28;101463.09;;;4.98;67.27
60974;BME280;46846;51.528;5.076;2023-04-26T07:49:54;101463.09;;;4.95;68.05
60974;BME280;46846;51.528;5.076;2023-04-26T07:52:19;101458.69;;;4.97;67.73
60974;BME280;46846;51.528;5.076;2023-04-26T07:54:44;101470.09;;;4.98;68.16
60974;BME280;46846;51.528;5.076;2023-04-26T07:57:10;101471.00;;;4.98;67.99
60974;BME280;46846;51.528;5.076;2023-04-26T07:59:35;101470.13;;;5.01;67.60
60974;BME280;46846;51.528;5.076;2023-04-26T08:02:01;101478.03;;;5.02;67.32
60974;BME280;46846;51.528;5.076;2023-04-26T08:04:30;101472.75;;;5.01;68.10
60974;BME280;46846;51.528;5.076;2023-04-26T08:06:56;101476.28;;;5.06;67.46
60974;BME280;46846;51.528;5.076;2023-04-26T08:09:22;101480.66;;;5.04;68.01
60974;BME280;46846;51.528;5.076;2023-04-26T08:11:47;101483.28;;;5.05;67.65
60974;BME280;46846;51.528;5.076;2023-04-26T08:14:12;101474.50;;;5.06;68.01
60974;BME280;46846;51.528;5.076;2023-04-26T08:16:37;101473.63;;;5.11;67.81
60974;BME280;46846;51.528;5.076;2023-04-26T08:19:03;101470.97;;;5.15;67.57
60974;BME280;46846;51.528;5.076;2023-04-26T08:21:28;101467.44;;;5.23;67.85
60974;BME280;46846;51.528;5.076;2023-04-26T08:23:53;101479.75;;;5.22;67.65
60974;BME280;46846;51.528;5.076;2023-04-26T08:26:18;101472.72;;;5.19;68.11
60974;BME280;46846;51.528;5.076;2023-04-26T08:28:44;101471.84;;;5.22;67.92
60974;BME280;46846;51.528;5.076;2023-04-26T08:31:10;101470.94;;;5.23;67.78
60974;BME280;46846;51.528;5.076;2023-04-26T08:33:36;101478.00;;;5.29;68.39
60974;BME280;46846;51.528;5.076;2023-04-26T08:36:01;101466.56;;;5.31;67.68
60974;BME280;46846;51.528;5.076;2023-04-26T08:38:26;101470.91;;;5.34;67.91
60974;BME280;46846;51.528;5.076;2023-04-26T08:40:53;101465.66;;;5.36;67.50
60974;BME280;46846;51.528;5.076;2023-04-26T08:43:19;101468.28;;;5.37;67.54
60974;BME280;46846;51.528;5.076;2023-04-26T08:45:45;101467.41;;;5.40;68.12
60974;BME280;46846;51.528;5.076;2023-04-26T08:48:11;101469.16;;;5.45;67.72
60974;BME280;46846;51.528;5.076;2023-04-26T08:50:40;101464.75;;;5.43;68.15
60974;BME280;46846;51.528;5.076;2023-04-26T08:53:07;101460.34;;;5.45;67.98
60974;BME280;46846;51.528;5.076;2023-04-26T08:55:32;101461.22;;;5.48;67.65
60974;BME280;46846;51.528;5.076;2023-04-26T08:57:59;101457.72;;;5.48;68.27
60974;BME280;46846;51.528;5.076;2023-04-26T09:00:25;101453.28;;;5.50;67.32
60974;BME280;46846;51.528;5.076;2023-04-26T09:02:51;101450.63;;;5.53;67.64
60974;BME280;46846;51.528;5.076;2023-04-26T09:05:17;101451.50;;;5.57;67.55
60974;BME280;46846;51.528;5.076;2023-04-26T09:07:47;101451.53;;;5.54;67.70
60974;BME280;46846;51.528;5.076;2023-04-26T09:10:16;101448.91;;;5.51;67.96
60974;BME280;46846;51.528;5.076;2023-04-26T09:12:43;101450.63;;;5.58;67.97
60974;BME280;46846;51.528;5.076;2023-04-26T09:15:08;101442.72;;;5.58;67.43
60974;BME280;46846;51.528;5.076;2023-04-26T09:17:35;101440.97;;;5.55;68.04
60974;BME280;46846;51.528;5.076;2023-04-26T09:20:09;101449.72;;;5.60;67.96
60974;BME280;46846;51.528;5.076;2023-04-26T09:22:40;101448.81;;;5.69;67.68
60974;BME280;46846;51.528;5.076;2023-04-26T09:25:06;101446.19;;;5.71;68.26
60974;BME280;46846;51.528;5.076;2023-04-26T09:27:38;101447.91;;;5.75;68.19
60974;BME280;46846;51.528;5.076;2023-04-26T09:30:14;101452.28;;;5.76;68.05
60974;BME280;46846;51.528;5.076;2023-04-26T09:37:53;101460.19;;;5.84;67.87
60974;BME280;46846;51.528;5.076;2023-04-26T09:40:19;101447.00;;;5.85;68.44
60974;BME280;46846;51.528;5.076;2023-04-26T09:42:45;101456.66;;;5.86;67.80
60974;BME280;46846;51.528;5.076;2023-04-26T09:45:10;101448.72;;;5.91;68.03
60974;BME280;46846;51.528;5.076;2023-04-26T09:47:35;101446.03;;;5.94;67.87
60974;BME280;46846;51.528;5.076;2023-04-26T09:50:01;101448.69;;;5.94;68.69
60974;BME280;46846;51.528;5.076;2023-04-26T09:52:26;101453.09;;;5.97;68.13
60974;BME280;46846;51.528;5.076;2023-04-26T09:54:53;101455.72;;;5.97;69.05
60974;BME280;46846;51.528;5.076;2023-04-26T09:57:19;101456.59;;;6.00;68.20
60974;BME280;46846;51.528;5.076;2023-04-26T09:59:52;101460.97;;;6.06;68.36
60974;BME280;46846;51.528;5.076;2023-04-26T10:02:21;101460.13;;;6.06;68.89
60974;BME280;46846;51.528;5.076;2023-04-26T10:04:48;101455.69;;;6.09;68.02
60974;BME280;46846;51.528;5.076;2023-04-26T10:07:14;101453.03;;;6.15;68.02
60974;BME280;46846;51.528;5.076;2023-04-26T10:09:40;101456.50;;;6.21;68.01
60974;BME280;46846;51.528;5.076;2023-04-26T10:12:06;101460.94;;;6.20;68.00
60974;BME280;46846;51.528;5.076;2023-04-26T10:14:31;101451.22;;;6.24;68.65
60974;BME280;46846;51.528;5.076;2023-04-26T10:16:58;101449.44;;;6.26;66.37
60974;BME280;46846;51.528;5.076;2023-04-26T10:19:24;101448.53;;;6.30;67.46
60974;BME280;46846;51.528;5.076;2023-04-26T10:21:50;101457.31;;;6.32;68.37
60974;BME280;46846;51.528;5.076;2023-04-26T10:24:17;101447.59;;;6.34;67.86
60974;BME280;46846;51.528;5.076;2023-04-26T10:29:12;101446.72;;;6.35;67.91
60974;BME280;46846;51.528;5.076;2023-04-26T10:34:22;101445.78;;;6.46;68.05
60974;BME280;46846;51.528;5.076;2023-04-26T10:39:42;101440.50;;;6.42;68.04
60974;BME280;46846;51.528;5.076;2023-04-26T10:42:21;101445.78;;;6.42;68.68
60974;BME280;46846;51.528;5.076;2023-04-26T10:44:58;101442.25;;;6.47;68.94
60974;BME280;46846;51.528;5.076;2023-04-26T10:49:49;101439.56;;;6.51;68.58
60974;BME280;46846;51.528;5.076;2023-04-26T10:52:16;101440.41;;;6.56;68.47
60974;BME280;46846;51.528;5.076;2023-04-26T10:57:15;101438.63;;;6.60;68.64
60974;BME280;46846;51.528;5.076;2023-04-26T11:05:09;101430.59;;;6.69;68.76
60974;BME280;46846;51.528;5.076;2023-04-26T11:07:35;101427.91;;;6.73;68.86
60974;BME280;46846;51.528;5.076;2023-04-26T11:10:07;101430.56;;;6.74;69.31
60974;BME280;46846;51.528;5.076;2023-04-26T11:12:34;101424.34;;;6.78;68.83
60974;BME280;46846;51.528;5.076;2023-04-26T11:14:59;101415.53;;;6.78;68.66
60974;BME280;46846;51.528;5.076;2023-04-26T11:17:25;101419.03;;;6.81;69.42
60974;BME280;46846;51.528;5.076;2023-04-26T11:19:50;101405.81;;;6.81;69.74
60974;BME280;46846;51.528;5.076;2023-04-26T11:22:15;101404.00;;;6.85;69.52
60974;BME280;46846;51.528;5.076;2023-04-26T11:24:41;101396.03;;;6.88;69.31
60974;BME280;46846;51.528;5.076;2023-04-26T11:27:07;101397.75;;;6.94;68.74
60974;BME280;46846;51.528;5.076;2023-04-26T11:29:33;101395.09;;;6.94;69.08
60974;BME280;46846;51.528;5.076;2023-04-26T11:31:58;101392.41;;;7.00;68.89
60974;BME280;46846;51.528;5.076;2023-04-26T11:34:36;101391.44;;;7.07;68.58
60974;BME280;46846;51.528;5.076;2023-04-26T11:37:02;101391.41;;;7.09;68.85
60974;BME280;46846;51.528;5.076;2023-04-26T11:39:31;101390.50;;;7.10;68.55
60974;BME280;46846;51.528;5.076;2023-04-26T11:42:06;101395.75;;;7.16;68.13
60974;BME280;46846;51.528;5.076;2023-04-26T11:44:32;101402.78;;;7.17;68.64
60974;BME280;46846;51.528;5.076;2023-04-26T11:46:58;101404.56;;;7.15;68.50
60974;BME280;46846;51.528;5.076;2023-04-26T11:49:24;101410.72;;;7.19;68.61
60974;BME280;46846;51.528;5.076;2023-04-26T11:51:50;101405.38;;;7.22;68.27
60974;BME280;46846;51.528;5.076;2023-04-26T11:54:32;101405.34;;;7.25;68.22
60974;BME280;46846;51.528;5.076;2023-04-26T11:56:57;101403.59;;;7.24;68.83
60974;BME280;46846;51.528;5.076;2023-04-26T11:59:23;101406.19;;;7.29;68.75
60974;BME280;46846;51.528;5.076;2023-04-26T12:01:49;101409.69;;;7.31;68.81
60974;BME280;46846;51.528;5.076;2023-04-26T12:04:16;101412.28;;;7.35;68.50
60974;BME280;46846;51.528;5.076;2023-04-26T12:06:42;101414.06;;;7.35;68.71
60974;BME280;46846;51.528;5.076;2023-04-26T12:09:08;101410.41;;;7.44;68.83
60974;BME280;46846;51.528;5.076;2023-04-26T12:11:33;101403.34;;;7.46;68.06
60974;BME280;46846;51.528;5.076;2023-04-26T12:13:59;101398.00;;;7.50;68.30
60974;BME280;46846;51.528;5.076;2023-04-26T12:16:25;101404.13;;;7.54;67.71
60974;BME280;46846;51.528;5.076;2023-04-26T12:18:51;101401.44;;;7.57;68.40
60974;BME280;46846;51.528;5.076;2023-04-26T12:21:17;101398.84;;;7.54;68.48
60974;BME280;46846;51.528;5.076;2023-04-26T12:23:42;101404.91;;;7.62;67.98
60974;BME280;46846;51.528;5.076;2023-04-26T12:26:11;101411.03;;;7.66;68.39
60974;BME280;46846;51.528;5.076;2023-04-26T12:28:37;101404.84;;;7.69;68.17
60974;BME280;46846;51.528;5.076;2023-04-26T12:31:02;101398.56;;;7.73;67.94
60974;BME280;46846;51.528;5.076;2023-04-26T12:33:28;101389.72;;;7.74;67.91
60974;BME280;46846;51.528;5.076;2023-04-26T12:35:53;101395.97;;;7.71;68.24
60974;BME280;46846;51.528;5.076;2023-04-26T12:38:19;101393.22;;;7.77;68.01
60974;BME280;46846;51.528;5.076;2023-04-26T12:40:44;101393.16;;;7.82;68.03
60974;BME280;46846;51.528;5.076;2023-04-26T12:43:09;101399.31;;;7.84;67.95
60974;BME280;46846;51.528;5.076;2023-04-26T12:45:35;101398.41;;;7.87;64.42
60974;BME280;46846;51.528;5.076;2023-04-26T12:48:00;101400.09;;;7.91;67.17
60974;BME280;46846;51.528;5.076;2023-04-26T12:50:26;101398.28;;;7.94;68.25
60974;BME280;46846;51.528;5.076;2023-04-26T12:52:51;101406.22;;;7.94;67.73
60974;BME280;46846;51.528;5.076;2023-04-26T12:55:17;101401.75;;;8.00;67.95
60974;BME280;46846;51.528;5.076;2023-04-26T12:57:43;101404.34;;;8.03;68.27
60974;BME280;46846;51.528;5.076;2023-04-26T13:00:12;101406.09;;;8.04;68.05
60974;BME280;46846;51.528;5.076;2023-04-26T13:02:38;101411.38;;;8.07;67.94
60974;BME280;46846;51.528;5.076;2023-04-26T13:05:03;101406.91;;;8.07;67.66
60974;BME280;46846;51.528;5.076;2023-04-26T13:07:31;101414.88;;;8.07;67.97
60974;BME280;46846;51.528;5.076;2023-04-26T13:09:56;101413.06;;;8.11;67.93
60974;BME280;46846;51.528;5.076;2023-04-26T13:12:22;101412.13;;;8.14;67.53
60974;BME280;46846;51.528;5.076;2023-04-26T13:14:47;101407.69;;;8.16;68.04
60974;BME280;46846;51.528;5.076;2023-04-26T13:17:12;101410.28;;;8.19;66.14